KPUB/PUB METAR and TAF weather

Enter ICAO airport designator
Station Type Date Time Source
KPUB METAR 2019/10/14 05:53 UTC NOAA

KPUB 140553Z AUTO 25006KT 10SM CLR 06/M08 A2996 RMK AO2 SLP117 T00561078 10206 20056 55002


Station Type Date Time Source
KPUB Decoded METAR 2019/10/14 05:53 UTC NOAA

PUEBLO MEMORIAL AIRPORT, CO, United States (KPUB) 38-17N 104-30W 1420M
Oct 14, 2019 - 01:53 AM EDT / 2019.10.14 0553 UTC
Wind: from the WSW (250 degrees) at 7 MPH (6 KT):0
Visibility: 10 mile(s):0
Sky conditions: clear
Temperature: 42.1 F (5.6 C)
Dew Point: 18.0 F (-7.8 C)
Relative Humidity: 37%
Pressure (altimeter): 29.96 in. Hg (1014 hPa)
Pressure tendency: 0.01 inches (0.2 hPa) lower than three hours ago
ob: KPUB 140553Z AUTO 25006KT 10SM CLR 06/M08 A2996 RMK AO2 SLP117 T00561078 10206 20056 55002
cycle: 6

Station Type Date Time Source
KPUB TAF 2019/10/14 06:30 UTC NOAA

TAF KPUB 140528Z 1406/1506 36007KT P6SM SKC
FM141200 VRB05KT P6SM SKC
FM141800 26008KT P6SM SKC
FM142000 26015KT P6SM FEW200
FM150200 01012KT P6SM SCT150

Example: see airport list